Time;durP1;ratioP1;P1;durP2;ratioP2;P2;SDS_P1;SDS_P2;PMS_P1;PMS_P2;Temp;Humidity;BMP_temperature;BMP_pressure;BME280_temperature;BME280_humidity;BME280_pressure;Samples;Min_cycle;Max_cycle;Signal;HPM_P1;HPM_P2
2022/05/22 00:00:20;;;;;;;16.55;4.65;;;;;;;;;;5054953;28;20028;-63
2022/05/22 00:02:46;;;;;;;16.25;5.68;;;;;;;;;;5061072;28;20029;-63
2022/05/22 00:05:15;;;;;;;16.35;5.05;;;;;;;;;;5052364;28;20057;-63
2022/05/22 00:07:42;;;;;;;13.00;3.80;;;;;;;;;;5052664;28;20037;-63
2022/05/22 00:10:08;;;;;;;9.50;4.00;;;;;;;;;;5052430;28;20025;-63
2022/05/22 00:12:34;;;;;;;13.00;4.78;;;;;;;;;;5052856;28;20031;-63
2022/05/22 00:15:01;;;;;;;12.18;3.80;;;;;;;;;;5052385;28;20024;-63
2022/05/22 00:17:27;;;;;;;10.73;3.85;;;;;;;;;;5052176;28;20025;-63
2022/05/22 00:19:53;;;;;;;8.80;3.20;;;;;;;;;;5052443;28;20028;-63
2022/05/22 00:22:19;;;;;;;8.68;3.88;;;;;;;;;;5052335;28;20044;-63
2022/05/22 00:24:45;;;;;;;11.38;4.20;;;;;;;;;;5052616;28;20037;-63
2022/05/22 00:27:11;;;;;;;8.38;3.38;;;;;;;;;;5058778;28;20098;-63
2022/05/22 00:29:38;;;;;;;10.05;4.38;;;;;;;;;;5047656;28;20036;-63
2022/05/22 00:32:05;;;;;;;12.65;3.85;;;;;;;;;;5050742;28;20040;-63
2022/05/22 00:34:32;;;;;;;8.98;3.80;;;;;;;;;;5052368;28;20021;-63
2022/05/22 00:36:58;;;;;;;7.25;3.50;;;;;;;;;;5052130;28;20037;-63
2022/05/22 00:39:24;;;;;;;14.45;4.10;;;;;;;;;;5050861;28;20036;-63
2022/05/22 00:41:52;;;;;;;11.45;4.72;;;;;;;;;;5052136;28;20033;-63
2022/05/22 00:44:18;;;;;;;10.13;3.95;;;;;;;;;;5035977;28;20034;-63
2022/05/22 00:46:44;;;;;;;17.95;4.15;;;;;;;;;;5041846;28;20126;-63
2022/05/22 00:49:14;;;;;;;11.57;4.28;;;;;;;;;;5051357;28;20025;-63
2022/05/22 00:51:47;;;;;;;8.57;4.50;;;;;;;;;;5052100;28;20039;-63
2022/05/22 00:54:17;;;;;;;13.52;4.72;;;;;;;;;;5048358;28;20466;-63
2022/05/22 00:56:46;;;;;;;15.65;5.35;;;;;;;;;;5064051;28;20103;-63
2022/05/22 00:59:15;;;;;;;17.95;5.68;;;;;;;;;;5031980;28;20025;-63
2022/05/22 01:01:42;;;;;;;12.98;5.47;;;;;;;;;;5063780;28;20402;-63
2022/05/22 01:04:12;;;;;;;19.60;5.97;;;;;;;;;;5031830;28;20041;-63
2022/05/22 01:06:45;;;;;;;15.32;5.45;;;;;;;;;;5032116;28;20049;-63
2022/05/22 01:09:13;;;;;;;16.15;4.85;;;;;;;;;;5063831;28;20060;-63
2022/05/22 01:11:40;;;;;;;11.38;5.00;;;;;;;;;;5064206;28;20028;-63
2022/05/22 01:14:15;;;;;;;17.05;5.35;;;;;;;;;;5065264;28;20032;-63
2022/05/22 01:16:42;;;;;;;14.10;5.13;;;;;;;;;;5049272;28;20021;-63
2022/05/22 01:19:10;;;;;;;10.98;4.30;;;;;;;;;;5051619;28;20029;-63
2022/05/22 01:21:36;;;;;;;11.60;4.63;;;;;;;;;;5050235;28;20087;-63
2022/05/22 01:24:03;;;;;;;11.88;4.20;;;;;;;;;;5051358;28;20033;-63
2022/05/22 01:26:32;;;;;;;13.68;4.60;;;;;;;;;;5063357;28;20029;-63
2022/05/22 01:29:04;;;;;;;8.55;4.43;;;;;;;;;;5070518;28;20024;-63
2022/05/22 01:31:31;;;;;;;13.88;5.28;;;;;;;;;;5070184;28;20438;-63
2022/05/22 01:34:00;;;;;;;13.00;4.57;;;;;;;;;;5067108;28;20041;-63
2022/05/22 01:36:26;;;;;;;12.35;4.70;;;;;;;;;;5050446;28;20459;-63
2022/05/22 01:38:55;;;;;;;13.88;4.82;;;;;;;;;;5050382;28;20481;-63
2022/05/22 01:41:25;;;;;;;10.55;4.60;;;;;;;;;;5050203;28;20021;-63
2022/05/22 01:43:53;;;;;;;13.60;4.70;;;;;;;;;;5050522;28;20040;-63
2022/05/22 01:46:21;;;;;;;10.45;5.10;;;;;;;;;;5049619;28;20060;-63
2022/05/22 01:49:07;;;;;;;11.95;6.15;;;;;;;;;;5035354;28;20132;-63
2022/05/22 01:51:35;;;;;;;12.73;4.80;;;;;;;;;;5063641;28;20177;-63
2022/05/22 01:54:01;;;;;;;14.27;4.72;;;;;;;;;;5063695;28;20021;-63
2022/05/22 01:56:29;;;;;;;12.05;4.30;;;;;;;;;;5063423;28;20047;-64
2022/05/22 01:58:55;;;;;;;13.60;4.75;;;;;;;;;;5063150;28;20037;-63
2022/05/22 02:01:31;;;;;;;15.25;4.60;;;;;;;;;;5070332;28;20397;-63
2022/05/22 02:04:02;;;;;;;9.02;4.72;;;;;;;;;;5077524;28;20086;-63
2022/05/22 02:06:32;;;;;;;11.43;4.93;;;;;;;;;;5050658;28;20029;-63
2022/05/22 02:09:07;;;;;;;10.90;5.47;;;;;;;;;;5053393;28;20489;-63
2022/05/22 02:11:38;;;;;;;21.23;5.22;;;;;;;;;;5053863;28;20175;-63
2022/05/22 02:14:05;;;;;;;12.70;4.43;;;;;;;;;;5050130;28;20060;-63
2022/05/22 02:16:31;;;;;;;14.88;4.30;;;;;;;;;;5070461;28;20013;-63
2022/05/22 02:18:58;;;;;;;10.55;4.95;;;;;;;;;;5073565;28;20029;-63
2022/05/22 02:21:29;;;;;;;10.18;4.03;;;;;;;;;;5073357;28;20024;-63
2022/05/22 02:23:55;;;;;;;12.93;4.65;;;;;;;;;;5069752;28;20027;-63
2022/05/22 02:26:21;;;;;;;21.05;4.90;;;;;;;;;;5060903;28;20028;-63
2022/05/22 02:28:47;;;;;;;17.98;5.10;;;;;;;;;;5073102;28;20070;-63
2022/05/22 02:31:15;;;;;;;11.40;5.47;;;;;;;;;;5073090;28;20039;-63
2022/05/22 02:33:45;;;;;;;18.30;5.60;;;;;;;;;;5074481;28;20028;-63
2022/05/22 02:36:15;;;;;;;12.60;4.82;;;;;;;;;;5074271;28;20508;-63
2022/05/22 02:38:45;;;;;;;16.15;4.93;;;;;;;;;;5049301;28;20040;-64
2022/05/22 02:41:18;;;;;;;14.45;5.05;;;;;;;;;;5033285;28;20033;-63
2022/05/22 02:43:53;;;;;;;11.73;4.53;;;;;;;;;;5052311;28;20400;-63
2022/05/22 02:46:20;;;;;;;10.90;5.25;;;;;;;;;;5052558;28;20051;-63
2022/05/22 02:48:49;;;;;;;15.10;5.40;;;;;;;;;;5052923;28;20013;-63
2022/05/22 02:51:17;;;;;;;11.80;4.55;;;;;;;;;;5052688;28;20090;-63
2022/05/22 02:53:43;;;;;;;13.93;4.78;;;;;;;;;;5052924;28;20032;-63
2022/05/22 02:56:17;;;;;;;11.13;4.37;;;;;;;;;;5049764;28;20077;-63
2022/05/22 02:59:05;;;;;;;12.10;4.93;;;;;;;;;;5046083;28;20107;-63
2022/05/22 03:01:48;;;;;;;9.15;4.70;;;;;;;;;;5052735;28;20033;-63
2022/05/22 03:04:14;;;;;;;12.07;5.13;;;;;;;;;;5052479;28;20394;-63
2022/05/22 03:06:40;;;;;;;20.27;4.90;;;;;;;;;;5053748;28;20029;-63
2022/05/22 03:09:09;;;;;;;11.20;5.05;;;;;;;;;;5052295;28;20033;-63
2022/05/22 03:11:39;;;;;;;15.70;5.45;;;;;;;;;;5072154;28;20103;-63
2022/05/22 03:14:06;;;;;;;10.95;4.65;;;;;;;;;;5065209;28;20025;-63
2022/05/22 03:16:33;;;;;;;11.60;4.38;;;;;;;;;;5048787;28;20070;-63
2022/05/22 03:19:14;;;;;;;13.68;4.90;;;;;;;;;;5072377;28;20443;-64
2022/05/22 03:21:44;;;;;;;10.20;4.68;;;;;;;;;;5072471;28;20033;-63
2022/05/22 03:24:11;;;;;;;15.98;6.28;;;;;;;;;;5072166;28;20492;-64
2022/05/22 03:26:44;;;;;;;9.07;4.90;;;;;;;;;;5071636;28;20036;-63
2022/05/22 03:29:11;;;;;;;14.43;6.75;;;;;;;;;;5051093;28;20021;-63
2022/05/22 03:31:37;;;;;;;13.52;4.70;;;;;;;;;;5047340;28;20029;-63
2022/05/22 03:34:04;;;;;;;14.88;5.47;;;;;;;;;;5050499;28;20497;-63
2022/05/22 03:36:31;;;;;;;15.60;4.93;;;;;;;;;;5050341;28;20025;-63
2022/05/22 03:38:57;;;;;;;12.60;3.97;;;;;;;;;;5051732;28;20024;-63
2022/05/22 03:41:23;;;;;;;14.77;5.18;;;;;;;;;;5050740;28;20017;-63
2022/05/22 03:43:51;;;;;;;12.98;4.82;;;;;;;;;;5050612;28;20017;-63
2022/05/22 03:46:40;;;;;;;9.88;3.88;;;;;;;;;;5052647;28;20121;-68
2022/05/22 03:49:06;;;;;;;11.13;4.65;;;;;;;;;;5052349;28;20617;-64
2022/05/22 03:51:40;;;;;;;13.60;5.28;;;;;;;;;;5050088;28;20032;-64
2022/05/22 03:54:10;;;;;;;11.57;4.32;;;;;;;;;;5046505;28;20029;-64
2022/05/22 03:56:41;;;;;;;11.38;4.60;;;;;;;;;;5049273;28;20491;-64
2022/05/22 03:59:15;;;;;;;7.60;4.72;;;;;;;;;;5049976;28;20400;-64
2022/05/22 04:01:41;;;;;;;14.98;4.93;;;;;;;;;;5049566;28;20041;-64
2022/05/22 04:04:08;;;;;;;14.63;6.60;;;;;;;;;;5049771;28;20545;-64
2022/05/22 04:06:34;;;;;;;13.95;4.57;;;;;;;;;;5049166;28;20037;-64
2022/05/22 04:09:01;;;;;;;14.02;4.53;;;;;;;;;;5049877;28;20049;-64
2022/05/22 04:11:47;;;;;;;14.23;4.63;;;;;;;;;;5048478;28;20037;-64
2022/05/22 04:14:18;;;;;;;13.02;4.65;;;;;;;;;;5049780;28;20036;-64
2022/05/22 04:16:50;;;;;;;16.05;4.72;;;;;;;;;;5078380;28;20033;-64
2022/05/22 04:19:18;;;;;;;13.27;4.78;;;;;;;;;;5050410;28;20032;-68
2022/05/22 04:21:44;;;;;;;10.55;4.80;;;;;;;;;;5046034;28;20447;-64
2022/05/22 04:27:07;;;;;;;14.55;5.32;;;;;;;;;;5076072;28;20179;-63
2022/05/22 04:29:36;;;;;;;12.55;4.65;;;;;;;;;;5038407;28;20049;-63
2022/05/22 04:32:03;;;;;;;10.57;4.78;;;;;;;;;;5039454;28;20048;-64
2022/05/22 04:34:36;;;;;;;17.17;4.75;;;;;;;;;;5072769;28;20026;-63
2022/05/22 04:37:09;;;;;;;20.40;6.65;;;;;;;;;;5049813;28;20033;-63
2022/05/22 04:39:42;;;;;;;18.38;5.45;;;;;;;;;;5050439;28;20025;-63
2022/05/22 04:42:08;;;;;;;14.73;4.75;;;;;;;;;;5050974;28;20032;-63
2022/05/22 04:44:35;;;;;;;11.77;4.95;;;;;;;;;;5051971;28;20037;-63
2022/05/22 04:47:19;;;;;;;11.13;4.82;;;;;;;;;;5051257;28;20044;-63
2022/05/22 04:50:06;;;;;;;9.98;4.25;;;;;;;;;;5061963;28;20040;-63
2022/05/22 04:52:33;;;;;;;9.52;4.13;;;;;;;;;;5051240;28;20482;-63
2022/05/22 04:54:59;;;;;;;15.95;4.30;;;;;;;;;;5049859;28;20083;-63
2022/05/22 04:57:26;;;;;;;10.10;4.07;;;;;;;;;;5050100;28;20088;-63
2022/05/22 04:59:53;;;;;;;11.27;4.22;;;;;;;;;;5042364;28;20047;-63
2022/05/22 05:02:19;;;;;;;14.43;4.40;;;;;;;;;;5049843;28;20091;-63
2022/05/22 05:04:58;;;;;;;13.90;4.40;;;;;;;;;;5050119;28;20117;-63
2022/05/22 05:07:29;;;;;;;13.10;4.75;;;;;;;;;;5048773;28;20557;-63
2022/05/22 05:10:09;;;;;;;15.82;4.38;;;;;;;;;;5054708;28;20028;-63
2022/05/22 05:12:42;;;;;;;17.63;5.07;;;;;;;;;;5049517;28;20021;-63
2022/05/22 05:15:10;;;;;;;11.25;4.55;;;;;;;;;;5051362;28;20078;-63
2022/05/22 05:17:36;;;;;;;9.15;4.15;;;;;;;;;;5049614;28;20112;-63
2022/05/22 05:20:04;;;;;;;11.90;4.03;;;;;;;;;;5049627;28;20125;-63
2022/05/22 05:22:45;;;;;;;9.65;4.22;;;;;;;;;;5049448;28;20037;-63
2022/05/22 05:25:19;;;;;;;11.07;4.65;;;;;;;;;;5049581;28;20020;-63
2022/05/22 05:27:45;;;;;;;14.48;4.25;;;;;;;;;;5055092;28;20037;-63
2022/05/22 05:30:18;;;;;;;13.10;4.85;;;;;;;;;;5048638;28;20037;-63
2022/05/22 05:32:46;;;;;;;9.18;3.92;;;;;;;;;;5047790;28;20060;-63
2022/05/22 05:35:33;;;;;;;11.50;4.35;;;;;;;;;;5049374;28;20017;-63
2022/05/22 05:38:01;;;;;;;13.13;4.18;;;;;;;;;;5048809;28;20037;-63
2022/05/22 05:40:28;;;;;;;14.45;4.40;;;;;;;;;;5045848;28;20037;-63
2022/05/22 05:42:54;;;;;;;12.23;4.15;;;;;;;;;;5053993;28;20043;-63
2022/05/22 05:45:21;;;;;;;7.78;3.28;;;;;;;;;;5053889;28;20024;-63
2022/05/22 05:47:59;;;;;;;8.93;3.83;;;;;;;;;;5053426;28;20033;-63
2022/05/22 05:50:55;;;;;;;10.93;3.75;;;;;;;;;;5057712;28;20024;-63
2022/05/22 05:53:32;;;;;;;9.18;3.45;;;;;;;;;;5053650;28;20052;-63
2022/05/22 05:56:39;;;;;;;10.05;3.63;;;;;;;;;;5064391;28;20119;-63
2022/05/22 05:59:17;;;;;;;10.77;3.80;;;;;;;;;;5073964;28;20033;-63
2022/05/22 06:01:47;;;;;;;16.75;4.05;;;;;;;;;;5039362;28;20469;-63
2022/05/22 06:04:13;;;;;;;13.52;3.10;;;;;;;;;;5042479;28;20056;-63
2022/05/22 06:06:39;;;;;;;14.07;4.70;;;;;;;;;;5042686;28;20447;-63
2022/05/22 06:09:06;;;;;;;12.80;4.18;;;;;;;;;;5052582;28;20027;-63
2022/05/22 06:12:01;;;;;;;13.88;4.20;;;;;;;;;;5025073;28;20062;-63
2022/05/22 06:14:34;;;;;;;10.45;4.38;;;;;;;;;;4996663;28;20169;-63
2022/05/22 06:17:00;;;;;;;9.75;3.72;;;;;;;;;;5006161;28;20041;-63
2022/05/22 06:19:55;;;;;;;8.65;3.50;;;;;;;;;;5015595;28;20029;-63
2022/05/22 06:22:23;;;;;;;8.05;3.33;;;;;;;;;;5009790;28;20048;-63
2022/05/22 06:24:53;;;;;;;11.93;3.95;;;;;;;;;;5005362;28;20025;-63
2022/05/22 06:27:25;;;;;;;12.10;3.85;;;;;;;;;;5026491;28;20041;-63
2022/05/22 06:30:15;;;;;;;17.70;4.70;;;;;;;;;;5031180;28;20041;-63
2022/05/22 06:32:57;;;;;;;10.32;3.47;;;;;;;;;;5029298;28;20112;-63
2022/05/22 06:35:46;;;;;;;9.85;3.33;;;;;;;;;;5026520;28;20041;-63
2022/05/22 06:41:34;;;;;;;10.20;3.60;;;;;;;;;;5020960;28;20041;-62
2022/05/22 06:44:19;;;;;;;10.55;4.38;;;;;;;;;;5030946;28;20041;-63
2022/05/22 06:47:11;;;;;;;14.02;3.67;;;;;;;;;;5028350;28;20038;-63
2022/05/22 06:49:56;;;;;;;11.93;3.88;;;;;;;;;;5047149;28;20040;-62
2022/05/22 06:52:45;;;;;;;13.38;3.70;;;;;;;;;;5049191;28;20045;-63
2022/05/22 06:55:44;;;;;;;10.48;3.45;;;;;;;;;;5048505;28;20255;-63
2022/05/22 06:58:37;;;;;;;10.57;3.97;;;;;;;;;;5011917;28;20156;-62
2022/05/22 07:01:09;;;;;;;12.77;3.88;;;;;;;;;;5004305;28;20081;-63
2022/05/22 07:04:14;;;;;;;14.68;3.72;;;;;;;;;;4986734;28;20030;-62
2022/05/22 07:07:04;;;;;;;18.30;3.97;;;;;;;;;;4979474;28;20023;-63
2022/05/22 07:10:03;;;;;;;12.98;3.63;;;;;;;;;;4984544;28;20034;-63
2022/05/22 07:12:48;;;;;;;12.98;4.32;;;;;;;;;;4990359;28;20041;-63
2022/05/22 07:15:36;;;;;;;18.77;4.25;;;;;;;;;;4990153;28;20129;-63
2022/05/22 07:18:23;;;;;;;10.95;3.40;;;;;;;;;;4985548;28;20471;-63
2022/05/22 07:21:07;;;;;;;14.18;4.00;;;;;;;;;;4988188;28;20037;-63
2022/05/22 07:23:54;;;;;;;14.48;4.13;;;;;;;;;;4988083;28;20112;-63
2022/05/22 07:26:55;;;;;;;8.90;3.40;;;;;;;;;;4950400;29;20043;-63
2022/05/22 07:29:44;;;;;;;13.35;4.47;;;;;;;;;;4946063;29;20040;-63
2022/05/22 07:32:25;;;;;;;15.13;3.72;;;;;;;;;;4947462;29;20067;-62
2022/05/22 07:35:14;;;;;;;11.38;4.07;;;;;;;;;;4957156;28;20062;-63
2022/05/22 07:37:56;;;;;;;14.63;4.13;;;;;;;;;;4974637;28;20041;-63
2022/05/22 07:40:43;;;;;;;18.52;3.90;;;;;;;;;;4893821;29;20040;-62
2022/05/22 07:43:18;;;;;;;11.63;4.88;;;;;;;;;;4891574;29;20195;-63
2022/05/22 07:46:07;;;;;;;11.07;4.38;;;;;;;;;;4889473;29;20037;-63
2022/05/22 07:48:49;;;;;;;12.80;4.28;;;;;;;;;;4895301;29;20032;-63
2022/05/22 07:51:47;;;;;;;12.55;4.13;;;;;;;;;;4887445;29;20040;-63
2022/05/22 07:54:33;;;;;;;22.20;4.57;;;;;;;;;;4891080;29;20040;-62
2022/05/22 07:57:28;;;;;;;14.30;5.10;;;;;;;;;;4890253;29;20048;-63
2022/05/22 08:00:07;;;;;;;12.27;3.80;;;;;;;;;;4876745;29;20039;-62
2022/05/22 08:02:42;;;;;;;17.13;4.35;;;;;;;;;;4944927;28;20043;-62
2022/05/22 08:05:10;;;;;;;11.82;3.67;;;;;;;;;;4947042;28;20043;-62
2022/05/22 08:07:42;;;;;;;12.65;4.28;;;;;;;;;;4951650;28;20031;-62
2022/05/22 08:10:31;;;;;;;10.35;4.50;;;;;;;;;;4924340;29;20704;-63
2022/05/22 08:13:04;;;;;;;9.53;4.13;;;;;;;;;;4949253;28;20054;-62
2022/05/22 08:15:31;;;;;;;13.52;4.45;;;;;;;;;;4963655;28;20385;-63
2022/05/22 08:18:16;;;;;;;10.77;4.82;;;;;;;;;;5012531;28;20040;-63
2022/05/22 08:20:43;;;;;;;11.20;4.05;;;;;;;;;;5048827;28;20040;-62
2022/05/22 08:23:16;;;;;;;11.60;4.57;;;;;;;;;;5039663;28;20056;-63
2022/05/22 08:25:50;;;;;;;25.80;4.70;;;;;;;;;;5047651;28;20036;-63
2022/05/22 08:28:17;;;;;;;14.63;4.45;;;;;;;;;;5047706;28;20032;-63
2022/05/22 08:30:43;;;;;;;12.73;4.55;;;;;;;;;;5038594;28;20044;-63
2022/05/22 08:33:10;;;;;;;12.82;4.80;;;;;;;;;;5065703;28;20033;-62
2022/05/22 08:35:39;;;;;;;14.77;5.00;;;;;;;;;;5045438;28;20037;-63
2022/05/22 08:38:05;;;;;;;13.75;4.03;;;;;;;;;;5047820;28;20412;-63
2022/05/22 08:40:50;;;;;;;18.60;4.60;;;;;;;;;;5040764;28;20025;-63
2022/05/22 08:43:23;;;;;;;14.35;5.22;;;;;;;;;;5050948;28;20025;-63
2022/05/22 08:45:56;;;;;;;13.98;4.03;;;;;;;;;;5050908;28;20029;-63
2022/05/22 08:48:30;;;;;;;10.03;4.40;;;;;;;;;;5050897;28;20032;-63
2022/05/22 08:50:57;;;;;;;17.90;5.38;;;;;;;;;;5049516;28;20021;-63
2022/05/22 08:53:31;;;;;;;17.42;4.32;;;;;;;;;;5050718;28;20059;-63
2022/05/22 08:58:56;;;;;;;14.77;4.93;;;;;;;;;;5048283;28;20506;-63
2022/05/22 09:01:30;;;;;;;12.10;4.03;;;;;;;;;;5050804;28;20039;-63
2022/05/22 09:04:09;;;;;;;13.57;4.20;;;;;;;;;;5047193;28;20120;-63
2022/05/22 09:06:42;;;;;;;13.10;4.38;;;;;;;;;;5054077;28;20112;-63
2022/05/22 09:09:08;;;;;;;;;;;;;;;;;;5050562;28;20044;-63
2022/05/22 09:11:53;;;;;;;15.35;3.40;;;;;;;;;;5044066;28;20397;-63
2022/05/22 09:14:24;;;;;;;14.18;4.30;;;;;;;;;;5049683;28;20544;-63
2022/05/22 09:17:02;;;;;;;12.90;3.90;;;;;;;;;;5052354;28;20086;-63
2022/05/22 09:19:38;;;;;;;11.32;3.75;;;;;;;;;;5054288;28;20032;-63
2022/05/22 09:22:21;;;;;;;14.70;3.67;;;;;;;;;;5053521;28;20040;-63
2022/05/22 09:24:56;;;;;;;16.83;4.30;;;;;;;;;;5046354;28;20025;-63
2022/05/22 09:27:25;;;;;;;19.75;4.20;;;;;;;;;;5047081;28;20029;-63
2022/05/22 09:29:51;;;;;;;13.73;4.03;;;;;;;;;;5053426;28;20032;-63
2022/05/22 09:32:23;;;;;;;14.95;3.80;;;;;;;;;;5050659;28;20033;-67
2022/05/22 09:34:49;;;;;;;10.02;4.38;;;;;;;;;;5052538;28;20029;-64
2022/05/22 09:37:16;;;;;;;13.10;4.38;;;;;;;;;;5053027;28;20052;-64
2022/05/22 09:39:42;;;;;;;12.68;4.03;;;;;;;;;;5053771;28;20041;-62
2022/05/22 09:42:29;;;;;;;8.68;3.90;;;;;;;;;;5053862;28;20017;-64
2022/05/22 09:44:58;;;;;;;13.80;3.90;;;;;;;;;;5044465;28;20060;-63
2022/05/22 09:47:36;;;;;;;10.07;4.10;;;;;;;;;;5059928;28;20091;-64
2022/05/22 09:50:02;;;;;;;11.25;3.85;;;;;;;;;;5055000;28;20033;-64
2022/05/22 09:52:47;;;;;;;10.98;3.92;;;;;;;;;;5048024;28;20022;-64
2022/05/22 09:55:32;;;;;;;20.25;5.05;;;;;;;;;;5046972;28;20163;-67
2022/05/22 09:58:07;;;;;;;15.82;3.90;;;;;;;;;;5075684;28;20049;-62
2022/05/22 10:00:40;;;;;;;13.57;3.90;;;;;;;;;;5054258;28;20086;-65
2022/05/22 10:03:18;;;;;;;18.08;3.72;;;;;;;;;;5054172;28;20040;-64
2022/05/22 10:06:05;;;;;;;15.90;4.07;;;;;;;;;;5054334;28;20041;-63
2022/05/22 10:09:01;;;;;;;12.27;3.75;;;;;;;;;;5051478;28;20508;-64
2022/05/22 10:11:36;;;;;;;12.25;4.13;;;;;;;;;;5043005;28;20124;-67
2022/05/22 10:14:08;;;;;;;10.27;3.75;;;;;;;;;;5052817;28;20083;-64
2022/05/22 10:16:57;;;;;;;15.60;3.90;;;;;;;;;;5053576;28;20033;-64
2022/05/22 10:19:29;;;;;;;14.40;3.47;;;;;;;;;;5011066;28;20084;-63
2022/05/22 10:22:14;;;;;;;16.05;3.85;;;;;;;;;;5009893;28;20045;-64
2022/05/22 10:25:02;;;;;;;14.80;4.10;;;;;;;;;;5015551;28;20497;-62
2022/05/22 10:27:37;;;;;;;12.18;3.67;;;;;;;;;;4993214;28;20128;-62
2022/05/22 10:30:10;;;;;;;19.65;4.25;;;;;;;;;;5016437;28;20041;-62
2022/05/22 10:32:42;;;;;;;14.65;4.80;;;;;;;;;;5020288;28;20116;-61
2022/05/22 10:35:28;;;;;;;14.95;4.25;;;;;;;;;;5012677;28;20076;-62
2022/05/22 10:38:07;;;;;;;11.20;3.28;;;;;;;;;;5011327;28;20053;-62
2022/05/22 10:43:18;;;;;;;13.15;3.85;;;;;;;;;;5002416;28;20112;-61
2022/05/22 10:45:44;;;;;;;13.50;4.32;;;;;;;;;;5011874;28;20041;-62
2022/05/22 10:48:10;;;;;;;12.10;3.85;;;;;;;;;;5010822;28;20038;-62
2022/05/22 10:50:37;;;;;;;20.83;5.55;;;;;;;;;;5014571;28;20034;-62
2022/05/22 10:53:03;;;;;;;12.02;3.78;;;;;;;;;;5010228;28;20029;-61
2022/05/22 10:55:44;;;;;;;12.48;4.30;;;;;;;;;;5017821;28;20105;-62
2022/05/22 10:58:23;;;;;;;15.40;5.45;;;;;;;;;;5055794;28;20060;-61
2022/05/22 11:00:58;;;;;;;16.35;5.10;;;;;;;;;;5052976;28;20167;-62
2022/05/22 11:03:26;;;;;;;14.90;5.70;;;;;;;;;;5051707;28;20033;-62
2022/05/22 11:05:52;;;;;;;16.65;5.45;;;;;;;;;;5052659;28;20029;-62
2022/05/22 11:08:30;;;;;;;15.02;5.50;;;;;;;;;;5052360;28;20031;-61
2022/05/22 11:10:57;;;;;;;13.30;4.97;;;;;;;;;;5049622;28;20029;-62
2022/05/22 11:13:25;;;;;;;18.50;4.93;;;;;;;;;;5031892;28;20021;-62
2022/05/22 11:15:52;;;;;;;23.63;5.65;;;;;;;;;;5033656;28;20111;-61
2022/05/22 11:18:23;;;;;;;16.83;5.60;;;;;;;;;;5034751;28;20082;-62
2022/05/22 11:20:58;;;;;;;15.90;5.22;;;;;;;;;;5035460;28;20034;-62
2022/05/22 11:23:43;;;;;;;18.20;5.93;;;;;;;;;;5040559;28;20073;-62
2022/05/22 11:26:21;;;;;;;19.17;5.32;;;;;;;;;;5039800;28;20040;-62
2022/05/22 11:28:59;;;;;;;11.45;5.13;;;;;;;;;;5040886;28;20033;-61
2022/05/22 11:31:32;;;;;;;14.05;5.25;;;;;;;;;;5036047;28;20035;-62
2022/05/22 11:33:58;;;;;;;;;;;;;;;;;;5035358;28;20059;-62
2022/05/22 11:36:39;;;;;;;15.60;5.93;;;;;;;;;;5037478;28;20113;-61
2022/05/22 11:39:05;;;;;;;15.63;6.78;;;;;;;;;;5044501;28;20052;-62
2022/05/22 11:41:45;;;;;;;10.88;5.95;;;;;;;;;;5039183;28;20037;-62
2022/05/22 11:44:14;;;;;;;21.27;7.28;;;;;;;;;;5042361;28;20021;-61
2022/05/22 11:46:55;;;;;;;19.50;6.45;;;;;;;;;;5037373;28;20025;-61
2022/05/22 11:49:40;;;;;;;25.88;7.00;;;;;;;;;;5034668;28;20028;-61
2022/05/22 11:55:09;;;;;;;34.67;13.13;;;;;;;;;;5037761;28;20144;-61
2022/05/22 11:57:39;;;;;;;19.63;7.85;;;;;;;;;;5037571;28;20045;-62
2022/05/22 12:00:25;;;;;;;19.88;7.82;;;;;;;;;;5034301;28;20523;-62
2022/05/22 12:02:55;;;;;;;19.65;8.80;;;;;;;;;;5035656;28;20468;-67
2022/05/22 12:05:33;;;;;;;19.05;8.32;;;;;;;;;;5036189;28;20033;-62
2022/05/22 12:08:11;;;;;;;22.17;8.50;;;;;;;;;;5037806;28;20031;-62
2022/05/22 12:10:50;;;;;;;19.67;7.20;;;;;;;;;;5037794;28;20026;-62
2022/05/22 12:13:22;;;;;;;18.60;8.07;;;;;;;;;;5036826;28;20021;-62
2022/05/22 12:15:51;;;;;;;27.20;7.35;;;;;;;;;;5034475;28;20040;-62
2022/05/22 12:18:27;;;;;;;19.77;6.70;;;;;;;;;;5034356;28;20025;-62
2022/05/22 12:21:16;;;;;;;22.33;6.38;;;;;;;;;;5038029;28;20068;-62
2022/05/22 12:23:54;;;;;;;18.48;7.50;;;;;;;;;;5036216;28;20064;-62
2022/05/22 12:26:22;;;;;;;17.08;7.35;;;;;;;;;;5039359;28;20568;-62
2022/05/22 12:28:48;;;;;;;19.70;6.50;;;;;;;;;;5044104;28;20018;-62
2022/05/22 12:31:40;;;;;;;20.75;6.18;;;;;;;;;;5036743;28;20025;-62
2022/05/22 12:34:15;;;;;;;15.75;6.85;;;;;;;;;;5039633;28;20017;-62
2022/05/22 12:36:43;;;;;;;18.85;7.07;;;;;;;;;;5040320;28;20033;-62
2022/05/22 12:39:11;;;;;;;19.25;5.90;;;;;;;;;;5046746;28;20078;-62
2022/05/22 12:41:58;;;;;;;13.93;6.95;;;;;;;;;;5036494;28;20543;-62
2022/05/22 12:44:25;;;;;;;15.55;7.55;;;;;;;;;;5039650;28;20485;-67
2022/05/22 12:46:53;;;;;;;17.50;6.90;;;;;;;;;;5054651;28;20017;-62
2022/05/22 12:49:27;;;;;;;21.67;7.07;;;;;;;;;;5049976;28;20043;-62
2022/05/22 12:52:16;;;;;;;15.88;6.97;;;;;;;;;;5050240;28;20032;-62
2022/05/22 12:54:43;;;;;;;20.65;6.47;;;;;;;;;;5048651;28;20055;-61
2022/05/22 12:57:14;;;;;;;19.25;7.00;;;;;;;;;;5049246;28;20111;-62
2022/05/22 12:59:52;;;;;;;17.73;7.20;;;;;;;;;;5046684;28;20034;-62
2022/05/22 13:02:23;;;;;;;;;;;;;;;;;;5046954;28;20029;-62
2022/05/22 13:04:55;;;;;;;21.70;6.22;;;;;;;;;;5039672;28;19909;-62
2022/05/22 13:07:31;;;;;;;25.02;6.07;;;;;;;;;;5047228;28;20037;-61
2022/05/22 13:09:57;;;;;;;19.73;6.75;;;;;;;;;;5051827;28;20056;-61
2022/05/22 13:12:31;;;;;;;14.57;6.28;;;;;;;;;;5059457;28;20025;-62
2022/05/22 13:14:59;;;;;;;14.07;5.90;;;;;;;;;;5051016;28;20031;-61
2022/05/22 13:17:34;;;;;;;14.63;6.47;;;;;;;;;;5051082;28;20051;-62
2022/05/22 13:20:02;;;;;;;15.25;6.72;;;;;;;;;;5051136;28;20029;-61
2022/05/22 13:22:31;;;;;;;16.67;6.53;;;;;;;;;;5050110;28;20094;-62
2022/05/22 13:24:58;;;;;;;20.13;6.45;;;;;;;;;;5050040;28;20033;-61
2022/05/22 13:27:24;;;;;;;16.83;6.97;;;;;;;;;;5045369;28;20086;-61
2022/05/22 13:29:54;;;;;;;17.42;7.22;;;;;;;;;;5046391;28;20087;-61
2022/05/22 13:32:35;;;;;;;15.48;6.05;;;;;;;;;;5044096;28;20081;-62
2022/05/22 13:35:02;;;;;;;15.88;6.55;;;;;;;;;;5050681;28;20037;-61
2022/05/22 13:37:30;;;;;;;14.88;6.60;;;;;;;;;;5051370;28;20068;-61
2022/05/22 13:39:58;;;;;;;16.85;7.07;;;;;;;;;;5051004;28;20040;-62
2022/05/22 13:42:43;;;;;;;17.40;7.60;;;;;;;;;;5051333;28;20104;-61
2022/05/22 13:45:23;;;;;;;12.93;6.60;;;;;;;;;;5047039;28;20369;-61
2022/05/22 13:48:08;;;;;;;22.23;7.03;;;;;;;;;;5044984;28;20033;-62
2022/05/22 13:53:34;;;;;;;23.20;7.05;;;;;;;;;;5044005;28;20424;-61
2022/05/22 13:56:01;;;;;;;15.98;6.75;;;;;;;;;;5052502;28;20377;-62
2022/05/22 13:58:35;;;;;;;16.73;6.93;;;;;;;;;;5049567;28;20090;-61
2022/05/22 14:01:08;;;;;;;18.10;7.90;;;;;;;;;;5044016;28;20115;-61
2022/05/22 14:03:43;;;;;;;20.13;7.07;;;;;;;;;;5054154;28;20037;-61
2022/05/22 14:06:13;;;;;;;19.42;7.53;;;;;;;;;;5057931;28;20025;-61
2022/05/22 14:08:42;;;;;;;19.90;7.88;;;;;;;;;;5058718;28;20082;-61
2022/05/22 14:11:12;;;;;;;19.45;7.20;;;;;;;;;;5059984;28;20405;-61
2022/05/22 14:13:49;;;;;;;20.20;7.40;;;;;;;;;;5053632;28;20028;-61
2022/05/22 14:16:24;;;;;;;20.33;6.80;;;;;;;;;;5053290;28;20062;-61
2022/05/22 14:19:20;;;;;;;17.20;6.47;;;;;;;;;;5052829;28;20029;-62
2022/05/22 14:21:47;;;;;;;19.02;4.68;;;;;;;;;;5043570;28;20037;-61
2022/05/22 14:27:19;;;;;;;21.83;4.43;;;;;;;;;;5056986;28;20044;-61
2022/05/22 14:29:47;;;;;;;17.98;4.57;;;;;;;;;;5054893;28;20044;-61
2022/05/22 14:32:17;;;;;;;19.05;4.10;;;;;;;;;;5054056;28;20025;-61
2022/05/22 14:34:45;;;;;;;14.48;4.60;;;;;;;;;;5053983;28;20538;-61
2022/05/22 14:37:12;;;;;;;11.80;4.35;;;;;;;;;;5050348;28;20017;-62
2022/05/22 14:39:54;;;;;;;15.50;4.90;;;;;;;;;;5052073;28;20416;-61
2022/05/22 14:42:22;;;;;;;13.18;4.63;;;;;;;;;;5051288;28;20033;-61
2022/05/22 14:44:48;;;;;;;18.38;6.20;;;;;;;;;;5058841;28;20035;-61
2022/05/22 14:47:23;;;;;;;18.08;5.60;;;;;;;;;;5051463;28;20037;-61
2022/05/22 14:49:50;;;;;;;18.58;5.88;;;;;;;;;;5049831;28;20463;-61
2022/05/22 14:52:18;;;;;;;23.90;5.45;;;;;;;;;;5052674;28;20358;-61
2022/05/22 14:55:06;;;;;;;15.63;5.03;;;;;;;;;;5053506;28;20052;-61
2022/05/22 14:57:34;;;;;;;16.27;6.15;;;;;;;;;;5049799;28;20501;-61
2022/05/22 15:00:06;;;;;;;19.35;6.10;;;;;;;;;;5052228;28;20033;-61
2022/05/22 15:02:54;;;;;;;16.42;6.28;;;;;;;;;;5052835;28;20029;-61
2022/05/22 15:05:21;;;;;;;16.33;6.32;;;;;;;;;;5052862;28;20515;-61
2022/05/22 15:07:57;;;;;;;22.38;6.85;;;;;;;;;;5052992;28;20067;-61
2022/05/22 15:10:24;;;;;;;17.08;5.55;;;;;;;;;;5050303;28;20405;-61
2022/05/22 15:12:50;;;;;;;19.73;5.70;;;;;;;;;;5041752;28;20025;-61
2022/05/22 15:15:27;;;;;;;16.88;4.88;;;;;;;;;;5050187;28;20494;-61
2022/05/22 15:18:02;;;;;;;21.25;6.38;;;;;;;;;;5045043;28;20036;-61
2022/05/22 15:20:31;;;;;;;16.65;5.80;;;;;;;;;;5055417;28;20043;-61
2022/05/22 15:25:46;;;;;;;22.73;6.00;;;;;;;;;;5052378;28;20619;-61
2022/05/22 15:28:20;;;;;;;19.45;5.22;;;;;;;;;;5054169;28;20030;-61
2022/05/22 15:30:48;;;;;;;10.48;5.53;;;;;;;;;;5047926;28;20033;-62